createdAt,value
2019-06-20T00:00:38.722Z,25.30
2019-06-20T00:03:08.163Z,25.20
2019-06-20T00:05:37.649Z,25.50
2019-06-20T00:08:07.089Z,25.40
2019-06-20T00:10:36.554Z,25.40
2019-06-20T00:13:06.016Z,25.20
2019-06-20T00:15:35.865Z,25.20
2019-06-20T00:18:05.308Z,25.40
2019-06-20T00:20:34.795Z,25.40
2019-06-20T00:23:04.226Z,25.40
2019-06-20T00:25:33.697Z,25.10
2019-06-20T00:28:03.264Z,25.00
2019-06-20T00:30:33.033Z,25.20
2019-06-20T00:33:02.493Z,24.90
2019-06-20T00:35:31.950Z,25.00
2019-06-20T00:38:01.450Z,25.10
2019-06-20T00:40:30.925Z,25.00
2019-06-20T00:43:15.899Z,25.00
2019-06-20T00:45:31.479Z,25.10
2019-06-20T00:48:00.918Z,24.80
2019-06-20T00:50:30.372Z,25.00
2019-06-20T00:52:59.815Z,25.00
2019-06-20T00:55:29.301Z,24.70
2019-06-20T00:57:58.722Z,24.80
2019-06-20T01:00:28.199Z,24.60
2019-06-20T01:02:57.662Z,24.90
2019-06-20T01:05:27.141Z,24.90
2019-06-20T01:07:56.596Z,24.80
2019-06-20T01:10:26.074Z,24.70
2019-06-20T01:12:55.621Z,24.80
2019-06-20T01:15:25.108Z,24.90
2019-06-20T01:17:54.559Z,24.90
2019-06-20T01:20:24.903Z,24.90
2019-06-20T01:22:54.337Z,24.70
2019-06-20T01:25:41.662Z,24.70
2019-06-20T01:28:11.193Z,24.70
2019-06-20T01:30:40.761Z,24.80
2019-06-20T01:33:10.295Z,24.80
2019-06-20T01:35:39.761Z,24.60
2019-06-20T01:38:09.212Z,24.70
2019-06-20T01:40:38.775Z,24.70
2019-06-20T01:43:08.213Z,24.60
2019-06-20T01:45:37.656Z,24.60
2019-06-20T01:48:07.117Z,24.40
2019-06-20T01:50:36.558Z,24.60
2019-06-20T01:53:06.053Z,24.40
2019-06-20T01:55:35.501Z,24.50
2019-06-20T01:58:04.976Z,24.30
2019-06-20T02:00:47.721Z,24.40
2019-06-20T02:03:17.493Z,24.30
2019-06-20T02:05:47.469Z,24.40
2019-06-20T02:08:17.006Z,24.00
2019-06-20T02:10:46.509Z,24.20
2019-06-20T02:13:16.069Z,24.20
2019-06-20T02:15:45.539Z,24.20
2019-06-20T02:18:15.401Z,24.30
2019-06-20T02:20:51.689Z,24.30
2019-06-20T02:23:21.564Z,24.30
2019-06-20T02:25:51.316Z,24.40
2019-06-20T02:28:20.822Z,24.40
2019-06-20T02:30:50.301Z,24.30
2019-06-20T02:33:20.325Z,24.30
2019-06-20T02:35:49.809Z,24.20
2019-06-20T02:38:19.285Z,24.20
2019-06-20T02:40:48.738Z,24.30
2019-06-20T02:43:18.308Z,24.20
2019-06-20T02:45:47.743Z,24.20
2019-06-20T02:48:17.260Z,24.20
2019-06-20T02:50:46.802Z,24.20
2019-06-20T02:53:16.265Z,24.10
2019-06-20T02:55:45.714Z,24.00
2019-06-20T02:58:15.186Z,24.00
2019-06-20T03:00:57.394Z,23.90
2019-06-20T03:03:27.690Z,23.90
2019-06-20T03:05:57.838Z,23.80
2019-06-20T03:08:27.473Z,23.50
2019-06-20T03:10:56.910Z,23.70
2019-06-20T03:13:26.597Z,23.40
2019-06-20T03:15:56.506Z,23.70
2019-06-20T03:18:25.958Z,23.70
2019-06-20T03:20:55.398Z,23.80
2019-06-20T03:23:25.125Z,23.80
2019-06-20T03:25:54.558Z,23.70
2019-06-20T03:28:24.017Z,23.80
2019-06-20T03:30:53.459Z,23.80
2019-06-20T03:33:23.029Z,23.80
2019-06-20T03:35:52.480Z,23.70
2019-06-20T03:38:21.953Z,23.70
2019-06-20T03:40:51.389Z,23.70
2019-06-20T03:43:20.854Z,23.70
2019-06-20T03:45:50.294Z,23.70
2019-06-20T03:48:19.761Z,23.70
2019-06-20T03:50:49.200Z,23.60
2019-06-20T03:53:18.663Z,23.60
2019-06-20T03:55:48.111Z,23.60
2019-06-20T03:58:17.582Z,23.60
2019-06-20T04:00:47.015Z,23.50
2019-06-20T04:03:16.477Z,23.40
2019-06-20T04:05:45.908Z,23.50
2019-06-20T04:08:15.433Z,23.50
2019-06-20T04:10:44.862Z,23.50
2019-06-20T04:13:14.318Z,23.50
2019-06-20T04:15:43.786Z,23.40
2019-06-20T04:18:13.226Z,23.30
2019-06-20T04:20:42.741Z,23.40
2019-06-20T04:23:12.183Z,23.40
2019-06-20T04:25:41.654Z,23.40
2019-06-20T04:28:11.085Z,23.40
2019-06-20T04:30:40.611Z,23.40
2019-06-20T04:33:10.048Z,23.30
2019-06-20T04:35:39.511Z,23.30
2019-06-20T04:38:08.945Z,23.30
2019-06-20T04:40:38.407Z,23.30
2019-06-20T04:43:07.883Z,23.30
2019-06-20T04:45:52.070Z,23.30
2019-06-20T04:48:21.517Z,23.20
2019-06-20T04:50:51.216Z,23.20
2019-06-20T04:53:20.658Z,23.20
2019-06-20T04:55:50.138Z,23.20
2019-06-20T04:58:19.592Z,23.20
2019-06-20T05:00:49.103Z,23.20
2019-06-20T05:03:18.635Z,23.20
2019-06-20T05:05:48.101Z,23.10
2019-06-20T05:08:17.544Z,23.20
2019-06-20T05:10:46.997Z,23.10
2019-06-20T05:13:16.491Z,23.10
2019-06-20T05:15:52.550Z,23.10
2019-06-20T05:18:17.123Z,23.10
2019-06-20T05:20:46.607Z,23.10
2019-06-20T05:23:16.131Z,23.10
2019-06-20T05:25:45.652Z,23.10
2019-06-20T05:28:15.039Z,23.10
2019-06-20T05:30:44.563Z,23.00
2019-06-20T05:33:14.081Z,23.00
2019-06-20T05:35:44.253Z,23.00
2019-06-20T05:38:13.711Z,23.00
2019-06-20T05:40:43.176Z,23.00
2019-06-20T05:43:12.614Z,23.00
2019-06-20T05:45:45.203Z,23.00
2019-06-20T05:48:13.230Z,22.90
2019-06-20T05:50:42.723Z,22.90
2019-06-20T05:53:12.183Z,23.00
2019-06-20T05:55:41.662Z,23.00
2019-06-20T05:58:11.399Z,23.00
2019-06-20T06:00:40.825Z,23.00
2019-06-20T06:03:13.593Z,23.00
2019-06-20T06:05:41.429Z,22.90
2019-06-20T06:08:10.818Z,23.00
2019-06-20T06:10:41.333Z,22.90
2019-06-20T06:13:10.714Z,22.90
2019-06-20T06:15:42.406Z,22.80
2019-06-20T06:18:11.875Z,22.80
2019-06-20T06:23:11.282Z,22.90
2019-06-20T06:25:42.310Z,22.90
2019-06-20T06:28:12.715Z,22.90
2019-06-20T06:30:42.231Z,22.90
2019-06-20T06:33:11.607Z,22.80
2019-06-20T06:35:41.137Z,22.90
2019-06-20T06:38:10.519Z,22.80
2019-06-20T06:40:40.020Z,22.80
2019-06-20T06:43:09.471Z,22.80
2019-06-20T06:45:38.922Z,22.80
2019-06-20T06:48:08.465Z,22.80
2019-06-20T06:50:38.045Z,22.80
2019-06-20T06:53:07.518Z,22.90
2019-06-20T06:55:36.978Z,22.90
2019-06-20T06:58:06.410Z,22.90
2019-06-20T07:00:35.873Z,22.90
2019-06-20T07:03:05.870Z,22.90
2019-06-20T07:05:35.450Z,22.90
2019-06-20T07:08:04.920Z,22.80
2019-06-20T07:10:34.385Z,23.00
2019-06-20T07:13:04.013Z,23.20
2019-06-20T07:15:33.474Z,23.10
2019-06-20T07:18:02.948Z,22.80
2019-06-20T07:20:32.469Z,22.80
2019-06-20T07:23:01.938Z,23.00
2019-06-20T07:25:31.492Z,23.10
2019-06-20T07:28:00.968Z,23.20
2019-06-20T07:30:30.490Z,23.00
2019-06-20T07:32:59.984Z,23.10
2019-06-20T07:35:29.417Z,23.20
2019-06-20T07:37:58.881Z,23.20
2019-06-20T07:40:28.363Z,23.20
2019-06-20T07:42:57.830Z,22.90
2019-06-20T07:45:27.852Z,22.80
2019-06-20T07:47:57.717Z,23.10
2019-06-20T07:50:27.153Z,23.00
2019-06-20T07:53:01.897Z,22.80
2019-06-20T07:55:27.719Z,22.70
2019-06-20T07:57:57.181Z,22.90
2019-06-20T08:00:26.841Z,22.70
2019-06-20T08:02:56.342Z,23.00
2019-06-20T08:05:25.842Z,23.10
2019-06-20T08:07:55.315Z,23.20
2019-06-20T08:10:24.963Z,23.20
2019-06-20T08:12:54.527Z,23.20
2019-06-20T08:15:24.300Z,23.00
2019-06-20T08:17:53.801Z,23.10
2019-06-20T08:20:24.357Z,23.20
2019-06-20T08:22:53.832Z,22.70
2019-06-20T08:25:23.364Z,23.00
2019-06-20T08:27:53.530Z,23.20
2019-06-20T08:30:28.373Z,23.00
2019-06-20T08:33:01.292Z,23.20
2019-06-20T08:35:31.076Z,23.20
2019-06-20T08:38:02.908Z,22.90
2019-06-20T08:40:36.244Z,23.00
2019-06-20T08:43:06.285Z,22.50
2019-06-20T08:45:37.526Z,22.60
2019-06-20T08:48:07.659Z,23.00
2019-06-20T08:50:37.478Z,23.10
2019-06-20T08:53:07.360Z,23.30
2019-06-20T08:55:37.211Z,23.00
2019-06-20T08:58:06.867Z,23.10
2019-06-20T09:00:37.701Z,23.40
2019-06-20T09:03:07.614Z,23.60
2019-06-20T09:05:37.462Z,23.70
2019-06-20T09:08:11.166Z,23.80
2019-06-20T09:10:40.388Z,23.90
2019-06-20T09:13:12.729Z,23.90
2019-06-20T09:15:42.823Z,24.00
2019-06-20T09:18:12.486Z,24.10
2019-06-20T09:20:42.028Z,24.00
2019-06-20T09:23:11.629Z,23.80
2019-06-20T09:25:41.121Z,23.80
2019-06-20T09:28:11.280Z,23.90
2019-06-20T09:30:40.846Z,23.10
2019-06-20T09:33:10.325Z,23.50
2019-06-20T09:35:39.755Z,23.70
2019-06-20T09:38:09.229Z,23.90
2019-06-20T09:40:38.671Z,23.90
2019-06-20T09:43:08.338Z,23.50
2019-06-20T09:45:37.781Z,23.70
2019-06-20T09:48:07.251Z,23.80
2019-06-20T09:50:36.726Z,23.80
2019-06-20T09:53:06.238Z,23.80
2019-06-20T09:55:35.671Z,23.70
2019-06-20T09:58:05.496Z,23.30
2019-06-20T10:00:35.334Z,23.70
2019-06-20T10:03:05.344Z,23.80
2019-06-20T10:05:35.128Z,23.80
2019-06-20T10:08:04.696Z,23.70
2019-06-20T10:10:34.527Z,23.60
2019-06-20T10:13:04.011Z,23.50
2019-06-20T10:15:36.440Z,23.70
2019-06-20T10:18:06.550Z,23.70
2019-06-20T10:20:38.848Z,23.60
2019-06-20T10:23:07.372Z,23.60
2019-06-20T10:25:37.105Z,23.70
2019-06-20T10:28:07.031Z,23.80
2019-06-20T10:30:36.467Z,23.80
2019-06-20T10:33:06.043Z,23.90
2019-06-20T10:35:35.542Z,23.60
2019-06-20T10:38:05.026Z,23.70
2019-06-20T10:40:34.454Z,23.50
2019-06-20T10:43:03.922Z,23.40
2019-06-20T10:45:34.330Z,23.60
2019-06-20T10:48:03.783Z,23.70
2019-06-20T10:50:33.268Z,23.80
2019-06-20T10:53:02.858Z,23.80
2019-06-20T10:55:32.324Z,23.80
2019-06-20T10:58:01.888Z,23.80
2019-06-20T11:00:32.006Z,23.80
2019-06-20T11:03:01.946Z,23.80
2019-06-20T11:05:31.449Z,23.40
2019-06-20T11:08:00.985Z,23.50
2019-06-20T11:10:31.256Z,23.60
2019-06-20T11:13:00.704Z,23.60
2019-06-20T11:15:30.598Z,23.60
2019-06-20T11:18:00.063Z,24.00
2019-06-20T11:20:29.850Z,24.40
2019-06-20T11:22:59.351Z,24.70
2019-06-20T11:25:28.900Z,24.90
2019-06-20T11:27:58.472Z,25.00
2019-06-20T11:30:29.159Z,25.20
2019-06-20T11:32:58.667Z,25.10
2019-06-20T11:35:28.172Z,25.10
2019-06-20T11:37:57.597Z,25.40
2019-06-20T11:40:27.267Z,25.00
2019-06-20T11:42:56.714Z,25.00
2019-06-20T11:45:27.029Z,25.10
2019-06-20T11:47:56.467Z,24.90
2019-06-20T11:50:26.058Z,25.10
2019-06-20T11:52:55.593Z,25.00
2019-06-20T11:55:25.071Z,24.30
2019-06-20T11:57:54.547Z,24.50
2019-06-20T12:00:24.544Z,24.40
2019-06-20T12:02:53.998Z,24.70
2019-06-20T12:05:23.472Z,24.80
2019-06-20T12:07:52.943Z,24.80
2019-06-20T12:10:23.121Z,25.50
2019-06-20T12:12:52.831Z,25.60
2019-06-20T12:15:23.236Z,25.40
2019-06-20T12:17:52.771Z,25.20
2019-06-20T12:20:24.236Z,25.10
2019-06-20T12:22:53.693Z,25.20
2019-06-20T12:25:24.903Z,25.30
2019-06-20T12:27:54.314Z,24.80
2019-06-20T12:30:23.881Z,25.00
2019-06-20T12:32:53.431Z,25.10
2019-06-20T12:35:22.914Z,25.20
2019-06-20T12:37:52.391Z,25.30
2019-06-20T12:40:22.839Z,25.20
2019-06-20T12:42:52.270Z,25.10
2019-06-20T12:45:21.846Z,25.20
2019-06-20T12:47:51.287Z,25.20
2019-06-20T12:50:20.958Z,25.30
2019-06-20T12:52:50.396Z,25.10
2019-06-20T12:55:19.936Z,25.10
2019-06-20T12:57:49.525Z,24.80
2019-06-20T13:00:20.080Z,25.00
2019-06-20T13:02:49.856Z,24.90
2019-06-20T13:05:20.224Z,25.10
2019-06-20T13:07:50.370Z,24.80
2019-06-20T13:10:21.398Z,25.00
2019-06-20T13:12:51.599Z,24.80
2019-06-20T13:15:21.512Z,24.70
2019-06-20T13:17:51.014Z,24.70
2019-06-20T13:20:21.663Z,24.80
2019-06-20T13:22:51.152Z,24.80
2019-06-20T13:25:21.359Z,24.80
2019-06-20T13:27:50.960Z,24.80
2019-06-20T13:30:21.583Z,24.70
2019-06-20T13:32:51.064Z,24.50
2019-06-20T13:35:21.465Z,24.30
2019-06-20T13:37:51.059Z,24.30
2019-06-20T13:40:20.693Z,24.40
2019-06-20T13:42:50.459Z,24.60
2019-06-20T13:45:22.711Z,24.40
2019-06-20T13:47:52.376Z,24.60
2019-06-20T13:50:23.260Z,24.50
2019-06-20T13:52:53.034Z,24.60
2019-06-20T13:55:22.676Z,24.40
2019-06-20T13:57:52.152Z,24.40
2019-06-20T14:00:22.767Z,24.40
2019-06-20T14:02:52.433Z,24.40
2019-06-20T14:05:21.981Z,24.60
2019-06-20T14:07:53.811Z,24.30
2019-06-20T14:10:22.629Z,24.50
2019-06-20T14:12:52.101Z,24.40
2019-06-20T14:15:21.804Z,24.50
2019-06-20T14:17:51.382Z,24.50
2019-06-20T14:20:21.397Z,24.50
2019-06-20T14:22:52.193Z,24.20
2019-06-20T14:25:21.816Z,23.30
2019-06-20T14:27:51.692Z,23.90
2019-06-20T14:30:22.338Z,24.30
2019-06-20T14:32:51.804Z,24.40
2019-06-20T14:35:21.491Z,23.70
2019-06-20T14:37:51.755Z,23.90
2019-06-20T14:40:22.068Z,23.90
2019-06-20T14:42:52.736Z,24.20
2019-06-20T14:45:22.529Z,24.20
2019-06-20T14:47:52.791Z,24.10
2019-06-20T14:50:22.334Z,23.90
2019-06-20T14:52:52.356Z,24.00
2019-06-20T14:55:22.152Z,23.90
2019-06-20T14:57:52.468Z,23.90
2019-06-20T15:00:24.139Z,24.00
2019-06-20T15:02:57.875Z,23.80
2019-06-20T15:05:24.838Z,23.80
2019-06-20T15:07:55.949Z,23.90
2019-06-20T15:10:25.627Z,23.20
2019-06-20T15:12:55.985Z,23.50
2019-06-20T15:15:25.937Z,23.60
2019-06-20T15:17:57.829Z,22.60
2019-06-20T15:20:26.515Z,22.20
2019-06-20T15:22:56.619Z,22.00
2019-06-20T15:25:26.269Z,21.70
2019-06-20T15:27:57.056Z,21.60
2019-06-20T15:30:26.866Z,21.80
2019-06-20T15:33:07.498Z,22.00
2019-06-20T15:35:27.609Z,22.50
2019-06-20T15:37:57.758Z,22.80
2019-06-20T15:40:27.525Z,23.00
2019-06-20T15:42:58.706Z,23.10
2019-06-20T15:45:28.145Z,23.20
2019-06-20T15:47:57.605Z,23.20
2019-06-20T15:50:27.042Z,23.20
2019-06-20T15:52:56.502Z,23.20
2019-06-20T15:55:25.945Z,23.20
2019-06-20T15:57:55.388Z,23.20
2019-06-20T16:00:25.995Z,22.40
2019-06-20T16:03:08.874Z,21.20
2019-06-20T16:05:26.636Z,22.10
2019-06-20T16:07:56.132Z,21.70
2019-06-20T16:10:25.611Z,20.90
2019-06-20T16:12:55.076Z,19.80
2019-06-20T16:15:24.511Z,21.60
2019-06-20T16:17:54.102Z,22.70
2019-06-20T16:20:23.546Z,23.00
2019-06-20T16:22:53.023Z,21.90
2019-06-20T16:25:22.715Z,22.20
2019-06-20T16:27:52.233Z,20.10
2019-06-20T16:30:22.175Z,20.50
2019-06-20T16:32:51.652Z,20.80
2019-06-20T16:35:21.457Z,22.20
2019-06-20T16:37:51.034Z,22.80
2019-06-20T16:40:31.458Z,23.00
2019-06-20T16:43:01.030Z,22.90
2019-06-20T16:45:30.456Z,21.80
2019-06-20T16:47:59.962Z,22.60
2019-06-20T16:50:29.437Z,20.20
2019-06-20T16:53:01.165Z,20.30
2019-06-20T16:55:30.102Z,19.90
2019-06-20T16:57:59.556Z,21.50
2019-06-20T17:00:29.400Z,21.50
2019-06-20T17:02:58.837Z,21.80
2019-06-20T17:05:28.494Z,21.80
2019-06-20T17:07:57.970Z,21.10
2019-06-20T17:10:27.449Z,21.30
2019-06-20T17:12:56.944Z,21.30
2019-06-20T17:15:26.420Z,22.50
2019-06-20T17:17:55.931Z,22.60
2019-06-20T17:20:25.810Z,22.50
2019-06-20T17:22:55.248Z,20.50
2019-06-20T17:25:24.922Z,21.80
2019-06-20T17:27:54.500Z,21.70
2019-06-20T17:30:24.432Z,21.70
2019-06-20T17:32:53.865Z,21.50
2019-06-20T17:35:23.338Z,21.30
2019-06-20T17:37:52.857Z,22.00
2019-06-20T17:40:24.127Z,22.10
2019-06-20T17:42:53.713Z,22.40
2019-06-20T17:45:23.671Z,22.60
2019-06-20T17:47:53.140Z,22.60
2019-06-20T17:50:25.671Z,22.20
2019-06-20T17:52:54.004Z,22.00
2019-06-20T17:55:23.478Z,21.60
2019-06-20T17:57:52.922Z,21.70
2019-06-20T18:00:23.473Z,21.30
2019-06-20T18:02:52.919Z,22.00
2019-06-20T18:05:22.718Z,22.00
2019-06-20T18:07:52.263Z,22.30
2019-06-20T18:10:22.122Z,22.50
2019-06-20T18:12:51.577Z,22.00
2019-06-20T18:15:22.493Z,22.10
2019-06-20T18:17:51.968Z,22.40
2019-06-20T18:20:21.940Z,22.40
2019-06-20T18:22:51.414Z,22.40
2019-06-20T18:25:21.192Z,22.30
2019-06-20T18:27:50.726Z,22.40
2019-06-20T18:30:22.443Z,22.50
2019-06-20T18:32:52.472Z,22.40
2019-06-20T18:35:22.477Z,22.40
2019-06-20T18:37:51.936Z,22.30
2019-06-20T18:40:22.096Z,22.40
2019-06-20T18:42:51.653Z,22.40
2019-06-20T18:45:21.405Z,22.30
2019-06-20T18:47:50.861Z,22.30
2019-06-20T18:50:20.577Z,22.30
2019-06-20T18:52:52.528Z,22.30
2019-06-20T18:55:21.478Z,22.30
2019-06-20T18:57:51.089Z,22.30
2019-06-20T19:00:34.052Z,22.30
2019-06-20T19:02:52.356Z,22.20
2019-06-20T19:05:22.002Z,22.20
2019-06-20T19:07:51.671Z,22.20
2019-06-20T19:10:26.327Z,22.20
2019-06-20T19:12:55.927Z,22.20
2019-06-20T19:15:25.715Z,22.20
2019-06-20T19:17:55.243Z,22.10
2019-06-20T19:20:24.914Z,22.10
2019-06-20T19:22:54.390Z,22.10
2019-06-20T19:25:23.846Z,22.10
2019-06-20T19:27:53.462Z,22.00
2019-06-20T19:30:30.071Z,22.00
2019-06-20T19:32:59.615Z,22.00
2019-06-20T19:35:29.135Z,22.00
2019-06-20T19:37:58.668Z,22.00
2019-06-20T19:40:31.301Z,22.00
2019-06-20T19:43:00.846Z,21.90
2019-06-20T19:45:30.338Z,21.90
2019-06-20T19:48:00.011Z,21.90
2019-06-20T19:50:29.606Z,21.80
2019-06-20T19:52:59.086Z,21.80
2019-06-20T19:55:28.727Z,21.80
2019-06-20T19:57:58.321Z,21.80
2019-06-20T20:00:27.865Z,21.80
2019-06-20T20:02:57.631Z,21.80
2019-06-20T20:05:27.205Z,21.80
2019-06-20T20:07:57.002Z,21.70
2019-06-20T20:10:46.046Z,21.70
2019-06-20T20:13:15.742Z,21.70
2019-06-20T20:15:45.518Z,21.70
2019-06-20T20:18:15.856Z,21.60
2019-06-20T20:20:47.529Z,21.60
2019-06-20T20:23:17.269Z,21.60
2019-06-20T20:25:46.738Z,21.60
2019-06-20T20:28:16.198Z,21.50
2019-06-20T20:30:45.871Z,21.50
2019-06-20T20:33:15.326Z,21.50
2019-06-20T20:35:44.759Z,21.50
2019-06-20T20:38:14.230Z,21.50
2019-06-20T20:40:44.160Z,21.40
2019-06-20T20:43:14.023Z,21.50
2019-06-20T20:45:43.496Z,21.40
2019-06-20T20:48:12.943Z,21.40
2019-06-20T20:50:42.497Z,21.40
2019-06-20T20:53:11.986Z,21.40
2019-06-20T20:55:41.431Z,21.30
2019-06-20T20:58:10.981Z,21.30
2019-06-20T21:00:53.993Z,21.30
2019-06-20T21:03:24.276Z,21.30
2019-06-20T21:05:53.737Z,21.20
2019-06-20T21:08:23.202Z,21.20
2019-06-20T21:10:52.723Z,21.20
2019-06-20T21:13:22.206Z,21.20
2019-06-20T21:15:51.717Z,21.20
2019-06-20T21:18:21.335Z,21.20
2019-06-20T21:20:50.874Z,21.10
2019-06-20T21:23:20.599Z,21.10
2019-06-20T21:25:50.099Z,21.10
2019-06-20T21:28:19.642Z,21.10
2019-06-20T21:30:49.178Z,21.10
2019-06-20T21:33:18.658Z,21.00
2019-06-20T21:35:48.102Z,21.00
2019-06-20T21:38:17.681Z,21.00
2019-06-20T21:40:47.133Z,21.00
2019-06-20T21:43:16.665Z,20.90
2019-06-20T21:45:46.654Z,20.90
2019-06-20T21:48:16.147Z,20.90
2019-06-20T21:50:45.840Z,20.90
2019-06-20T21:53:15.321Z,20.90
2019-06-20T21:55:44.796Z,20.90
2019-06-20T21:58:14.386Z,20.80
2019-06-20T22:00:48.010Z,20.80
2019-06-20T22:03:17.465Z,20.80
2019-06-20T22:05:46.910Z,20.80
2019-06-20T22:08:16.361Z,20.70
2019-06-20T22:10:45.866Z,20.70
2019-06-20T22:13:15.362Z,20.70
2019-06-20T22:15:44.921Z,20.70
2019-06-20T22:18:14.626Z,20.70
2019-06-20T22:20:44.112Z,20.70
2019-06-20T22:23:13.591Z,20.70
2019-06-20T22:25:43.028Z,20.60
2019-06-20T22:28:12.590Z,20.60
2019-06-20T22:30:45.582Z,20.60
2019-06-20T22:33:15.067Z,20.60
2019-06-20T22:35:46.114Z,20.50
2019-06-20T22:38:15.800Z,20.50
2019-06-20T22:40:45.375Z,20.50
2019-06-20T22:43:14.877Z,20.50
2019-06-20T22:45:44.327Z,20.50
2019-06-20T22:48:13.971Z,20.50
2019-06-20T22:50:43.682Z,20.50
2019-06-20T22:53:13.197Z,20.40
2019-06-20T22:55:42.646Z,20.40
2019-06-20T22:58:12.130Z,20.40
2019-06-20T23:00:41.561Z,20.40
2019-06-20T23:03:11.094Z,20.30
2019-06-20T23:05:40.533Z,20.40
2019-06-20T23:08:10.011Z,20.30
2019-06-20T23:10:39.477Z,20.30
2019-06-20T23:13:08.958Z,20.30
2019-06-20T23:15:38.388Z,20.30
2019-06-20T23:18:07.895Z,20.30
2019-06-20T23:20:37.350Z,20.30
2019-06-20T23:23:06.834Z,20.30
2019-06-20T23:25:37.847Z,20.20
2019-06-20T23:28:07.309Z,20.20
2019-06-20T23:30:36.774Z,20.20
2019-06-20T23:33:06.227Z,20.20
2019-06-20T23:35:36.089Z,20.20
2019-06-20T23:38:05.655Z,20.20
2019-06-20T23:40:35.117Z,20.20
2019-06-20T23:43:04.807Z,20.20
2019-06-20T23:45:34.288Z,20.10
2019-06-20T23:48:03.732Z,20.00
2019-06-20T23:50:33.206Z,20.10
2019-06-20T23:53:15.145Z,20.00
2019-06-20T23:55:44.623Z,20.00
2019-06-20T23:58:14.146Z,20.00
